Time;durP1;ratioP1;P1;durP2;ratioP2;P2;SDS_P1;SDS_P2;PMS_P1;PMS_P2;Temp;Humidity;BMP_temperature;BMP_pressure;BME280_temperature;BME280_humidity;BME280_pressure;Samples;Min_cycle;Max_cycle;Signal;HPM_P1;HPM_P2
2022/03/05 00:00:49;;;;;;;118.82;107.00;;;4.80;65.40;;;;;;5018035;28;20053;-78
2022/03/05 00:03:18;;;;;;;118.20;106.28;;;4.80;65.60;;;;;;5017697;28;20058;-78
2022/03/05 00:05:46;;;;;;;120.55;108.50;;;4.70;65.80;;;;;;5017474;28;20880;-78
2022/03/05 00:08:13;;;;;;;120.07;108.05;;;4.60;65.90;;;;;;5017116;28;20038;-78
2022/03/05 00:10:41;;;;;;;119.40;107.50;;;4.60;66.10;;;;;;5017527;28;20100;-78
2022/03/05 00:13:09;;;;;;;117.85;105.90;;;4.60;66.10;;;;;;5017610;28;20068;-78
2022/03/05 00:15:37;;;;;;;119.03;106.93;;;4.60;66.00;;;;;;5017442;28;20129;-78
2022/03/05 00:18:04;;;;;;;119.13;107.15;;;4.50;65.90;;;;;;5017353;28;20131;-78
2022/03/05 00:20:32;;;;;;;118.50;106.70;;;4.50;65.70;;;;;;5033933;28;20042;-78
2022/03/05 00:22:59;;;;;;;120.90;108.60;;;4.50;65.90;;;;;;5017008;28;20056;-78
2022/03/05 00:25:26;;;;;;;119.18;107.18;;;4.40;65.70;;;;;;5017247;28;20057;-78
2022/03/05 00:27:54;;;;;;;119.53;107.53;;;4.30;65.90;;;;;;5000076;28;20057;-78
2022/03/05 00:30:23;;;;;;;122.15;109.95;;;4.30;66.10;;;;;;5000864;28;20049;-77
2022/03/05 00:32:51;;;;;;;121.80;109.70;;;4.30;66.10;;;;;;5017351;28;20046;-78
2022/03/05 00:35:18;;;;;;;119.97;107.97;;;4.20;66.20;;;;;;5017177;28;20427;-78
2022/03/05 00:37:46;;;;;;;119.97;107.88;;;4.20;66.30;;;;;;5016923;28;20046;-78
2022/03/05 00:40:13;;;;;;;120.03;107.85;;;4.20;66.40;;;;;;5035107;28;20054;-78
2022/03/05 00:42:40;;;;;;;119.80;107.68;;;4.20;66.30;;;;;;5016802;28;20050;-78
2022/03/05 00:45:08;;;;;;;121.20;109.00;;;4.20;66.20;;;;;;5016990;28;20103;-78
2022/03/05 00:47:36;;;;;;;122.43;110.05;;;4.20;66.20;;;;;;5000473;28;20046;-77
2022/03/05 00:50:06;;;;;;;123.25;110.85;;;4.20;66.30;;;;;;5034987;28;20054;-78
2022/03/05 00:52:34;;;;;;;120.63;108.40;;;4.20;66.60;;;;;;5000504;28;20046;-78
2022/03/05 00:55:02;;;;;;;120.25;108.05;;;4.10;66.50;;;;;;5017132;28;20060;-77
2022/03/05 00:57:29;;;;;;;121.05;108.93;;;4.10;66.50;;;;;;5016657;28;20045;-77
2022/03/05 00:59:55;;;;;;;;;;;4.10;66.30;;;;;;5034916;28;20054;-78
2022/03/05 01:02:22;;;;;;;;;;;4.00;66.30;;;;;;5017732;28;20387;-77
2022/03/05 01:04:49;;;;;;;120.63;108.03;;;4.00;66.40;;;;;;5016915;28;19925;-78
2022/03/05 01:07:17;;;;;;;120.68;108.47;;;4.00;66.40;;;;;;5015059;28;20050;-77
2022/03/05 01:09:44;;;;;;;122.00;109.50;;;3.90;66.50;;;;;;5016511;28;20495;-77
2022/03/05 01:12:11;;;;;;;121.72;109.28;;;3.80;66.60;;;;;;5034926;28;20049;-78
2022/03/05 01:14:39;;;;;;;;;;;3.80;66.50;;;;;;5034939;28;20061;-78
2022/03/05 01:17:06;;;;;;;122.20;109.45;;;3.80;66.30;;;;;;5033289;28;19933;-77
2022/03/05 01:19:33;;;;;;;121.13;108.70;;;3.70;66.80;;;;;;5016432;28;20527;-78
2022/03/05 01:22:00;;;;;;;;;;;3.70;66.60;;;;;;5017078;28;20088;-77
2022/03/05 01:24:28;;;;;;;;;;;3.60;66.70;;;;;;5017450;28;20420;-78
2022/03/05 01:26:56;;;;;;;120.72;107.93;;;3.60;66.80;;;;;;5016507;28;20012;-77
2022/03/05 01:29:22;;;;;;;;;;;3.60;66.70;;;;;;5033302;28;20137;-78
2022/03/05 01:31:49;;;;;;;;;;;3.50;67.10;;;;;;5034890;28;19932;-78
2022/03/05 01:34:16;;;;;;;120.68;107.93;;;3.50;66.80;;;;;;5000455;28;20469;-78
2022/03/05 01:36:43;;;;;;;122.13;109.40;;;3.40;66.80;;;;;;5016164;28;20046;-77
2022/03/05 01:39:09;;;;;;;120.53;108.07;;;3.40;67.20;;;;;;5032486;28;20053;-77
2022/03/05 01:41:39;;;;;;;122.43;109.68;;;3.40;67.30;;;;;;5015867;28;20543;-77
2022/03/05 01:44:06;;;;;;;122.85;110.05;;;3.40;67.40;;;;;;5032134;28;20062;-77
2022/03/05 01:46:35;;;;;;;121.97;109.32;;;3.40;67.60;;;;;;4999171;28;20136;-77
2022/03/05 01:49:02;;;;;;;120.90;108.40;;;3.40;67.70;;;;;;5031112;28;20060;-78
2022/03/05 01:51:29;;;;;;;121.43;108.93;;;3.40;67.70;;;;;;5034011;28;20116;-77
2022/03/05 01:53:57;;;;;;;120.60;108.20;;;3.30;67.30;;;;;;5033998;28;20492;-77
2022/03/05 01:56:26;;;;;;;121.90;109.30;;;3.30;67.60;;;;;;5015806;28;20046;-77
2022/03/05 01:58:56;;;;;;;121.53;108.93;;;3.30;67.50;;;;;;5015454;28;20061;-77
2022/03/05 02:01:24;;;;;;;121.35;108.72;;;3.20;67.50;;;;;;5015993;28;20056;-77
2022/03/05 02:03:52;;;;;;;121.13;108.57;;;3.20;67.50;;;;;;5015973;28;20082;-78
2022/03/05 02:06:19;;;;;;;120.63;108.13;;;3.20;67.60;;;;;;5033439;28;20054;-77
2022/03/05 02:08:46;;;;;;;120.95;108.15;;;3.20;67.90;;;;;;5015530;28;20491;-77
2022/03/05 02:11:15;;;;;;;120.60;108.05;;;3.20;67.80;;;;;;5015770;28;20050;-77
2022/03/05 02:13:42;;;;;;;120.28;107.55;;;3.10;67.70;;;;;;5015755;28;20042;-78
2022/03/05 02:16:10;;;;;;;121.10;108.50;;;3.10;67.90;;;;;;5015438;28;20562;-77
2022/03/05 02:18:37;;;;;;;120.07;107.68;;;3.00;68.10;;;;;;5017784;28;20144;-77
2022/03/05 02:21:06;;;;;;;120.20;107.70;;;3.00;68.10;;;;;;5019507;28;20072;-77
2022/03/05 02:23:33;;;;;;;119.88;107.47;;;2.90;68.10;;;;;;5019262;28;20058;-77
2022/03/05 02:26:02;;;;;;;119.55;107.15;;;2.90;68.20;;;;;;5036933;28;20050;-77
2022/03/05 02:28:31;;;;;;;119.05;106.75;;;2.90;68.40;;;;;;5018662;28;20512;-77
2022/03/05 02:30:58;;;;;;;119.25;107.03;;;2.90;68.50;;;;;;5018960;28;20050;-77
2022/03/05 02:33:26;;;;;;;118.80;106.50;;;2.80;68.40;;;;;;5019109;28;20129;-77
2022/03/05 02:35:53;;;;;;;117.55;105.45;;;2.80;68.40;;;;;;5018818;28;20501;-77
2022/03/05 02:38:23;;;;;;;117.78;105.60;;;2.70;68.10;;;;;;5036768;28;20054;-77
2022/03/05 02:40:52;;;;;;;119.00;106.70;;;2.60;68.30;;;;;;5018722;28;20521;-77
2022/03/05 02:43:21;;;;;;;119.45;107.15;;;2.50;68.40;;;;;;5002463;28;20050;-77
2022/03/05 02:45:48;;;;;;;118.80;106.60;;;2.40;68.80;;;;;;5018567;28;20045;-77
2022/03/05 02:48:18;;;;;;;118.28;106.07;;;2.40;69.00;;;;;;5018753;28;20141;-77
2022/03/05 02:50:46;;;;;;;117.40;105.25;;;2.40;69.10;;;;;;5036440;28;20073;-77
2022/03/05 02:53:13;;;;;;;117.43;105.28;;;2.40;69.20;;;;;;5018663;28;20050;-77
2022/03/05 02:55:44;;;;;;;116.65;104.65;;;2.40;69.10;;;;;;5018352;28;20510;-77
2022/03/05 02:58:11;;;;;;;118.05;105.68;;;2.40;69.20;;;;;;5018327;28;20050;-77
2022/03/05 03:00:38;;;;;;;117.22;105.03;;;2.30;69.20;;;;;;5018525;28;20130;-77
2022/03/05 03:03:05;;;;;;;;;;;2.30;69.30;;;;;;5037083;28;20046;-77
2022/03/05 03:05:32;;;;;;;115.10;102.75;;;2.20;69.70;;;;;;5018758;28;19930;-77
2022/03/05 03:07:59;;;;;;;;;;;2.00;69.70;;;;;;5018714;28;20069;-77
2022/03/05 03:10:27;;;;;;;116.63;104.35;;;1.90;70.20;;;;;;5019078;28;20460;-77
2022/03/05 03:12:58;;;;;;;116.65;104.35;;;1.80;70.30;;;;;;5018713;28;20073;-77
2022/03/05 03:15:25;;;;;;;116.40;104.05;;;1.70;70.60;;;;;;5018195;28;20054;-77
2022/03/05 03:17:52;;;;;;;117.32;104.93;;;1.60;70.80;;;;;;5018175;28;20046;-77
2022/03/05 03:20:21;;;;;;;116.65;104.35;;;1.60;71.20;;;;;;5018454;28;20061;-77
2022/03/05 03:22:49;;;;;;;116.88;104.57;;;1.60;71.60;;;;;;5018326;28;20065;-77
2022/03/05 03:25:16;;;;;;;116.55;104.25;;;1.50;72.00;;;;;;5018034;28;20049;-78
2022/03/05 03:27:43;;;;;;;117.90;105.40;;;1.40;72.10;;;;;;5017784;28;20113;-77
2022/03/05 03:30:13;;;;;;;;;;;1.30;72.20;;;;;;5017680;28;20104;-77
2022/03/05 03:32:40;;;;;;;115.45;103.00;;;1.30;73.30;;;;;;5036490;28;19972;-77
2022/03/05 03:35:08;;;;;;;117.53;105.03;;;1.20;72.70;;;;;;5035849;28;20054;-77
2022/03/05 03:37:36;;;;;;;116.93;104.45;;;1.20;73.00;;;;;;5018043;28;20053;-77
2022/03/05 03:40:06;;;;;;;116.80;104.40;;;1.10;73.30;;;;;;5017806;28;20054;-77
2022/03/05 03:42:33;;;;;;;117.03;104.45;;;1.10;73.70;;;;;;5017799;28;20058;-77
2022/03/05 03:45:02;;;;;;;116.40;104.00;;;1.10;73.90;;;;;;5017976;28;20046;-77
2022/03/05 03:47:30;;;;;;;117.40;104.72;;;1.10;73.90;;;;;;5035546;28;20081;-77
2022/03/05 03:49:57;;;;;;;119.00;106.30;;;1.10;74.10;;;;;;5018049;28;20515;-76
2022/03/05 03:52:25;;;;;;;116.90;104.45;;;1.20;74.10;;;;;;5017860;28;20576;-77
2022/03/05 03:54:52;;;;;;;118.03;105.35;;;1.20;74.10;;;;;;5017766;28;20488;-77
2022/03/05 03:57:19;;;;;;;116.15;103.80;;;1.10;74.20;;;;;;5017341;28;20542;-77
2022/03/05 03:59:47;;;;;;;116.90;104.25;;;1.10;74.20;;;;;;5017812;28;20049;-78
2022/03/05 04:02:14;;;;;;;117.40;104.75;;;1.10;74.40;;;;;;5035609;28;20042;-77
2022/03/05 04:04:43;;;;;;;117.38;104.75;;;1.10;74.40;;;;;;5017802;28;20052;-77
2022/03/05 04:09:54;;;;;;;117.50;104.70;;;1.10;74.60;;;;;;5017630;28;20065;-77
2022/03/05 04:12:21;;;;;;;117.38;104.78;;;1.10;74.60;;;;;;5017170;28;20050;-77
2022/03/05 04:14:49;;;;;;;116.53;104.13;;;1.10;74.70;;;;;;5017613;28;20049;-77
2022/03/05 04:17:16;;;;;;;116.72;104.07;;;1.00;74.70;;;;;;5017272;28;20064;-77
2022/03/05 04:19:45;;;;;;;117.80;105.10;;;1.00;74.80;;;;;;5017434;28;20112;-77
2022/03/05 04:22:12;;;;;;;118.57;105.75;;;1.00;74.80;;;;;;5017303;28;20046;-77
2022/03/05 04:24:39;;;;;;;117.53;104.82;;;1.00;74.80;;;;;;5035152;28;20050;-77
2022/03/05 04:27:06;;;;;;;117.85;105.10;;;1.00;74.90;;;;;;5017116;28;20050;-77
2022/03/05 04:29:34;;;;;;;117.63;104.93;;;1.00;74.90;;;;;;5017577;28;20108;-76
2022/03/05 04:32:01;;;;;;;117.00;104.47;;;0.90;75.00;;;;;;5017134;28;20066;-77
2022/03/05 04:34:28;;;;;;;;;;;0.90;75.10;;;;;;5017693;28;20128;-77
2022/03/05 04:36:56;;;;;;;115.85;103.10;;;0.80;75.80;;;;;;5017792;28;19934;-78
2022/03/05 04:39:24;;;;;;;117.35;104.47;;;0.80;75.40;;;;;;5017013;28;20054;-77
2022/03/05 04:41:50;;;;;;;117.75;104.28;;;0.80;75.40;;;;;;5016964;28;20073;-77
2022/03/05 04:44:18;;;;;;;117.85;104.95;;;0.80;75.40;;;;;;5034744;28;20050;-77
2022/03/05 04:46:45;;;;;;;116.78;103.78;;;0.70;75.70;;;;;;5017032;28;20081;-78
2022/03/05 04:49:12;;;;;;;117.45;104.55;;;0.70;75.50;;;;;;5016987;28;20061;-77
2022/03/05 04:51:39;;;;;;;117.65;104.75;;;0.60;76.10;;;;;;5017218;28;20054;-77
2022/03/05 04:54:08;;;;;;;117.75;104.95;;;0.60;75.70;;;;;;5016847;28;20054;-77
2022/03/05 04:56:36;;;;;;;118.25;105.28;;;0.60;75.80;;;;;;5034450;28;20049;-76
2022/03/05 04:59:03;;;;;;;117.78;104.90;;;0.50;76.10;;;;;;5016644;28;20116;-77
2022/03/05 05:01:31;;;;;;;119.00;105.90;;;0.50;76.00;;;;;;5000354;28;20054;-77
2022/03/05 05:03:58;;;;;;;117.93;105.07;;;0.60;76.10;;;;;;5016552;28;20057;-77
2022/03/05 05:06:25;;;;;;;116.68;103.65;;;0.60;76.20;;;;;;5016327;28;20054;-77
2022/03/05 05:08:52;;;;;;;;;;;0.70;76.40;;;;;;5017103;28;20054;-77
2022/03/05 05:11:21;;;;;;;116.95;104.15;;;0.70;76.50;;;;;;5016797;28;19964;-77
2022/03/05 05:13:48;;;;;;;117.93;105.15;;;0.70;76.10;;;;;;5017024;28;20056;-77
2022/03/05 05:16:15;;;;;;;117.18;104.30;;;0.70;76.10;;;;;;5016450;28;20053;-77
2022/03/05 05:19:24;;;;;;;116.15;103.38;;;0.70;76.10;;;;;;5016360;28;20060;-77
2022/03/05 05:21:29;;;;;;;115.22;102.75;;;0.60;76.10;;;;;;5032871;28;20101;-77
2022/03/05 05:23:57;;;;;;;115.20;102.50;;;0.60;76.30;;;;;;5016457;28;20050;-77
2022/03/05 05:26:25;;;;;;;118.32;105.43;;;0.60;76.40;;;;;;5016093;28;20054;-77
2022/03/05 05:28:52;;;;;;;117.57;104.43;;;0.60;76.30;;;;;;5016330;28;20085;-76
2022/03/05 05:31:20;;;;;;;115.45;103.07;;;0.50;76.50;;;;;;5016540;28;20045;-77
2022/03/05 05:33:47;;;;;;;115.43;103.05;;;0.50;76.70;;;;;;5016462;28;20129;-77
2022/03/05 05:36:14;;;;;;;;;;;0.50;76.60;;;;;;5016714;28;20431;-77
2022/03/05 05:38:41;;;;;;;114.28;101.90;;;0.50;77.20;;;;;;5016295;28;19972;-77
2022/03/05 05:41:09;;;;;;;115.75;103.15;;;0.40;76.90;;;;;;5016196;28;20049;-77
2022/03/05 05:43:38;;;;;;;116.38;103.68;;;0.40;77.10;;;;;;5016127;28;20061;-77
2022/03/05 05:46:05;;;;;;;116.63;103.85;;;0.40;76.90;;;;;;5015953;28;20061;-77
2022/03/05 05:48:32;;;;;;;117.05;104.22;;;0.40;77.00;;;;;;5032566;28;20500;-77
2022/03/05 05:50:59;;;;;;;116.53;104.03;;;0.40;77.00;;;;;;5015975;28;20050;-76
2022/03/05 05:53:26;;;;;;;117.53;103.88;;;0.50;77.00;;;;;;5015165;28;20050;-76
2022/03/05 05:55:54;;;;;;;116.57;103.88;;;0.50;77.10;;;;;;5015800;28;20049;-76
2022/03/05 05:58:21;;;;;;;116.70;104.10;;;0.50;77.00;;;;;;5032070;28;20101;-77
2022/03/05 06:00:50;;;;;;;;;;;0.50;76.80;;;;;;5016132;28;20052;-77
2022/03/05 06:03:17;;;;;;;115.40;102.63;;;0.50;77.30;;;;;;5033622;28;19980;-77
2022/03/05 06:05:44;;;;;;;115.28;102.75;;;0.50;76.90;;;;;;5033077;28;20054;-77
2022/03/05 06:08:11;;;;;;;115.72;102.90;;;0.60;76.80;;;;;;5033144;28;20054;-77
2022/03/05 06:10:39;;;;;;;115.18;102.75;;;0.60;76.80;;;;;;5015427;28;20046;-77
2022/03/05 06:13:06;;;;;;;115.78;102.55;;;0.70;76.60;;;;;;5032174;28;20806;-77
2022/03/05 06:15:33;;;;;;;115.25;102.82;;;0.70;76.50;;;;;;5015705;28;20054;-77
2022/03/05 06:18:02;;;;;;;115.97;103.57;;;0.70;76.40;;;;;;5015339;28;20069;-77
2022/03/05 06:20:29;;;;;;;115.72;103.22;;;0.80;76.50;;;;;;5033389;28;20061;-77
2022/03/05 06:22:56;;;;;;;116.60;104.25;;;0.80;76.40;;;;;;5033260;28;20050;-77
2022/03/05 06:25:23;;;;;;;115.55;103.20;;;0.90;76.40;;;;;;5015373;28;20061;-76
2022/03/05 06:27:50;;;;;;;116.80;104.18;;;0.90;76.40;;;;;;5014957;28;20552;-76
2022/03/05 06:30:17;;;;;;;114.75;102.57;;;1.00;76.40;;;;;;5015255;28;20094;-76
2022/03/05 06:32:44;;;;;;;116.18;103.40;;;1.10;76.40;;;;;;5015604;28;20124;-77
2022/03/05 06:35:12;;;;;;;116.05;103.65;;;1.10;76.10;;;;;;5015272;28;20494;-77
2022/03/05 06:37:39;;;;;;;116.15;103.65;;;1.20;76.00;;;;;;5015185;28;20137;-77
2022/03/05 06:40:10;;;;;;;116.30;103.90;;;1.10;75.70;;;;;;5015146;28;20050;-77
2022/03/05 06:42:37;;;;;;;115.22;103.03;;;1.10;75.70;;;;;;5033074;28;20065;-77
2022/03/05 06:45:06;;;;;;;115.20;102.90;;;1.10;75.80;;;;;;5015102;28;20057;-76
2022/03/05 06:47:34;;;;;;;116.55;103.95;;;1.00;75.90;;;;;;5014996;28;20050;-77
2022/03/05 06:50:01;;;;;;;115.03;102.75;;;1.00;75.90;;;;;;5033444;28;20049;-77
2022/03/05 06:52:29;;;;;;;;;;;0.90;76.00;;;;;;5015420;28;20050;-76
2022/03/05 06:54:57;;;;;;;114.55;102.18;;;0.90;76.60;;;;;;5028128;28;20387;-78
2022/03/05 06:57:24;;;;;;;115.32;102.93;;;0.80;77.00;;;;;;5012316;28;20160;-78
2022/03/05 06:59:52;;;;;;;114.93;102.60;;;0.80;76.80;;;;;;5013584;28;20515;-77
2022/03/05 07:02:19;;;;;;;114.38;101.95;;;0.80;77.20;;;;;;5031715;28;20042;-77
2022/03/05 07:04:47;;;;;;;115.45;103.05;;;0.80;77.20;;;;;;5016044;28;20112;-77
2022/03/05 07:07:14;;;;;;;114.30;102.00;;;0.80;77.40;;;;;;5035868;28;20054;-78
2022/03/05 07:09:42;;;;;;;116.80;104.32;;;0.80;77.60;;;;;;5036402;28;20054;-77
2022/03/05 07:12:10;;;;;;;115.60;103.28;;;0.90;77.80;;;;;;5035055;28;20058;-77
2022/03/05 07:14:37;;;;;;;118.30;105.72;;;0.90;77.90;;;;;;4936891;28;20859;-77
2022/03/05 07:17:58;;;;;;;115.07;102.85;;;0.90;78.10;;;;;;5017148;28;20057;-77
2022/03/05 07:20:25;;;;;;;115.45;102.88;;;0.90;78.40;;;;;;5027131;28;20140;-77
2022/03/05 07:22:52;;;;;;;118.53;105.53;;;0.90;78.50;;;;;;5043355;28;20045;-76
2022/03/05 07:25:20;;;;;;;114.40;102.07;;;0.90;78.60;;;;;;5030222;28;20054;-77
2022/03/05 07:27:47;;;;;;;115.72;103.30;;;0.90;79.00;;;;;;5031850;28;20053;-77
2022/03/05 07:30:14;;;;;;;116.10;103.50;;;0.90;78.90;;;;;;5023493;28;20057;-77
2022/03/05 07:32:41;;;;;;;116.68;103.25;;;1.00;79.40;;;;;;5031512;28;20053;-78
2022/03/05 07:35:09;;;;;;;116.22;103.70;;;0.90;79.40;;;;;;5044912;28;20054;-77
2022/03/05 07:37:36;;;;;;;116.18;103.45;;;1.00;79.30;;;;;;5027346;28;20050;-77
2022/03/05 07:40:04;;;;;;;116.97;104.53;;;1.10;79.60;;;;;;5025915;28;20591;-77
2022/03/05 07:42:33;;;;;;;118.80;104.50;;;1.10;80.10;;;;;;5021567;28;20050;-77
2022/03/05 07:45:00;;;;;;;114.85;102.45;;;1.10;79.90;;;;;;5017758;28;20106;-78
2022/03/05 07:47:27;;;;;;;115.85;103.38;;;1.20;80.10;;;;;;5020124;28;20188;-78
2022/03/05 07:49:55;;;;;;;114.80;102.40;;;1.20;80.40;;;;;;5017614;28;20050;-77
2022/03/05 07:52:22;;;;;;;114.78;102.50;;;1.20;80.30;;;;;;5017524;28;20077;-78
2022/03/05 07:54:49;;;;;;;116.07;103.55;;;1.30;80.50;;;;;;5034464;28;20838;-77
2022/03/05 07:57:16;;;;;;;115.80;103.32;;;1.30;80.80;;;;;;5017479;28;20523;-77
2022/03/05 07:59:44;;;;;;;116.05;103.65;;;1.30;80.70;;;;;;5035665;28;20050;-77
2022/03/05 08:02:15;;;;;;;116.85;104.45;;;1.40;80.80;;;;;;5017622;28;20048;-77
2022/03/05 08:04:43;;;;;;;116.28;103.78;;;1.40;80.90;;;;;;5017257;28;20085;-77
2022/03/05 08:07:10;;;;;;;116.20;104.03;;;1.50;81.10;;;;;;5000477;28;20144;-77
2022/03/05 08:09:37;;;;;;;119.20;106.30;;;1.50;81.70;;;;;;5017685;28;20050;-77
2022/03/05 08:12:05;;;;;;;115.90;103.57;;;1.50;81.80;;;;;;5030239;28;20141;-77
2022/03/05 08:14:32;;;;;;;119.28;106.22;;;1.60;81.90;;;;;;4997799;28;20050;-77
2022/03/05 08:17:00;;;;;;;115.65;103.30;;;1.60;82.30;;;;;;4997289;28;20463;-78
2022/03/05 08:19:28;;;;;;;117.30;104.47;;;1.60;82.20;;;;;;5017003;28;20064;-77
2022/03/05 08:21:55;;;;;;;118.10;105.50;;;1.70;82.20;;;;;;5033458;28;20057;-77
2022/03/05 08:24:22;;;;;;;118.07;105.28;;;1.80;82.40;;;;;;5016613;28;20054;-77
2022/03/05 08:26:49;;;;;;;118.05;105.32;;;1.80;82.50;;;;;;5016985;28;20058;-77
2022/03/05 08:29:16;;;;;;;117.20;104.50;;;1.80;82.70;;;;;;5016931;28;20057;-77
2022/03/05 08:31:43;;;;;;;118.57;105.63;;;1.80;82.40;;;;;;5017555;28;20141;-77
2022/03/05 08:34:11;;;;;;;118.22;105.57;;;1.90;82.50;;;;;;5016607;28;20066;-76
2022/03/05 08:36:39;;;;;;;120.75;107.80;;;1.90;82.60;;;;;;5016839;28;20077;-76
2022/03/05 08:39:06;;;;;;;119.32;106.53;;;2.00;83.00;;;;;;5024437;28;20045;-78
2022/03/05 08:41:33;;;;;;;119.97;107.22;;;2.10;83.00;;;;;;5015082;28;20140;-78
2022/03/05 08:44:25;;;;;;;120.18;107.03;;;2.10;83.40;;;;;;5016347;28;20042;-78
2022/03/05 08:46:52;;;;;;;120.10;107.15;;;2.30;83.60;;;;;;5016395;28;20073;-78
2022/03/05 08:49:20;;;;;;;120.30;107.13;;;2.30;83.60;;;;;;5032482;28;20093;-78
2022/03/05 08:51:47;;;;;;;120.93;107.82;;;2.40;83.70;;;;;;5016281;28;20052;-78
2022/03/05 08:54:14;;;;;;;120.57;107.82;;;2.50;83.70;;;;;;5000306;28;20508;-78
2022/03/05 08:56:41;;;;;;;120.63;107.28;;;2.50;83.70;;;;;;5015413;28;20431;-78
2022/03/05 08:59:08;;;;;;;119.63;106.65;;;2.60;83.50;;;;;;5016663;28;20049;-78
2022/03/05 09:01:36;;;;;;;120.20;107.15;;;2.60;83.30;;;;;;5016774;28;20057;-78
2022/03/05 09:04:03;;;;;;;121.88;108.60;;;2.70;83.80;;;;;;5016831;28;20050;-78
2022/03/05 09:06:31;;;;;;;118.85;105.75;;;2.70;83.70;;;;;;5016403;28;20050;-78
2022/03/05 09:08:59;;;;;;;122.10;108.35;;;2.80;83.70;;;;;;5034495;28;20053;-78
2022/03/05 09:11:27;;;;;;;122.22;109.10;;;2.80;83.50;;;;;;5016504;28;20901;-78
2022/03/05 09:13:54;;;;;;;121.05;107.93;;;2.90;83.40;;;;;;5000147;28;20181;-78
2022/03/05 09:16:21;;;;;;;121.60;108.60;;;2.90;83.20;;;;;;5016529;28;20053;-78
2022/03/05 09:18:48;;;;;;;120.65;107.68;;;3.00;83.30;;;;;;5016488;28;20141;-78
2022/03/05 09:21:15;;;;;;;123.53;110.32;;;3.00;83.40;;;;;;5016360;28;20596;-78
2022/03/05 09:23:43;;;;;;;;;;;3.10;83.30;;;;;;5016834;28;20077;-78
2022/03/05 09:26:11;;;;;;;120.72;107.68;;;3.20;84.40;;;;;;5033408;28;20409;-78
2022/03/05 09:28:38;;;;;;;119.90;106.80;;;3.30;83.90;;;;;;5033230;28;20393;-78
2022/03/05 09:31:05;;;;;;;122.43;109.47;;;3.40;84.30;;;;;;5000218;28;20125;-78
2022/03/05 09:33:32;;;;;;;121.63;108.45;;;3.50;84.60;;;;;;5016256;28;20050;-78
2022/03/05 09:36:01;;;;;;;122.53;109.20;;;3.60;83.90;;;;;;5034018;28;20078;-79
2022/03/05 09:38:28;;;;;;;122.50;109.40;;;3.70;83.70;;;;;;5016017;28;20128;-78
2022/03/05 09:40:57;;;;;;;122.43;109.45;;;3.80;84.00;;;;;;5016217;28;20053;-78
2022/03/05 09:43:24;;;;;;;122.50;109.50;;;3.90;83.90;;;;;;5016208;28;20050;-78
2022/03/05 09:45:53;;;;;;;124.15;110.75;;;3.90;83.60;;;;;;5016549;28;20117;-78
2022/03/05 09:48:20;;;;;;;121.32;108.35;;;4.00;83.50;;;;;;5015905;28;20133;-78
2022/03/05 09:50:47;;;;;;;;;;;4.10;83.20;;;;;;5016293;28;20611;-78
2022/03/05 09:53:14;;;;;;;;;;;4.10;82.70;;;;;;5016776;28;19932;-78
2022/03/05 09:55:41;;;;;;;122.90;109.38;;;4.20;83.00;;;;;;5016386;28;19932;-78
2022/03/05 09:58:09;;;;;;;122.35;109.22;;;4.20;82.70;;;;;;5016033;28;20049;-78
2022/03/05 10:00:36;;;;;;;122.80;109.40;;;4.30;82.60;;;;;;5016043;28;20135;-78
2022/03/05 10:03:06;;;;;;;123.70;110.57;;;4.30;82.50;;;;;;5016133;28;20053;-78
2022/03/05 10:05:36;;;;;;;124.70;111.50;;;4.40;82.30;;;;;;5015643;28;20054;-79
2022/03/05 10:08:08;;;;;;;124.78;111.45;;;4.40;82.10;;;;;;5015650;28;20142;-78
2022/03/05 10:10:43;;;;;;;125.63;112.03;;;4.50;82.20;;;;;;5015716;28;20053;-78
2022/03/05 10:13:24;;;;;;;126.85;113.30;;;4.60;82.30;;;;;;5016203;28;20828;-78
2022/03/05 10:15:54;;;;;;;124.53;111.22;;;4.60;82.20;;;;;;5015766;28;20050;-78
2022/03/05 10:18:29;;;;;;;125.90;112.47;;;4.60;82.00;;;;;;5015911;28;20054;-78
2022/03/05 10:20:57;;;;;;;126.47;113.18;;;4.70;81.90;;;;;;5016008;28;20046;-78
2022/03/05 10:23:25;;;;;;;126.40;113.00;;;4.80;81.80;;;;;;5015354;28;20053;-78
2022/03/05 10:25:53;;;;;;;125.32;111.10;;;4.80;81.60;;;;;;5015758;28;20059;-79
2022/03/05 10:28:23;;;;;;;126.20;112.60;;;4.90;81.30;;;;;;5015298;28;20045;-78
2022/03/05 10:30:52;;;;;;;127.90;114.38;;;4.90;81.00;;;;;;5015603;28;20050;-79
2022/03/05 10:33:26;;;;;;;125.85;112.43;;;4.90;80.60;;;;;;5015562;28;20095;-78
2022/03/05 10:35:53;;;;;;;128.27;114.60;;;5.00;80.70;;;;;;5015564;28;20057;-78
2022/03/05 10:38:20;;;;;;;130.50;116.65;;;5.00;80.90;;;;;;5015652;28;20400;-78
2022/03/05 10:40:54;;;;;;;127.40;113.88;;;5.10;81.20;;;;;;5019008;28;20065;-79
2022/03/05 10:43:23;;;;;;;126.95;113.40;;;5.20;81.30;;;;;;5018698;28;20054;-79
2022/03/05 10:45:52;;;;;;;126.15;112.55;;;5.20;81.30;;;;;;5018973;28;20539;-78
2022/03/05 10:48:28;;;;;;;128.90;114.97;;;5.30;82.00;;;;;;5018738;28;20046;-79
2022/03/05 10:51:02;;;;;;;127.78;114.07;;;5.50;81.60;;;;;;5018872;28;20097;-78
2022/03/05 10:53:40;;;;;;;130.80;116.57;;;5.50;81.10;;;;;;5018982;28;20160;-78
2022/03/05 10:56:29;;;;;;;128.48;114.90;;;5.60;81.20;;;;;;5018817;28;20050;-78
2022/03/05 10:59:07;;;;;;;127.15;113.78;;;5.70;81.20;;;;;;5018670;28;20496;-78
2022/03/05 11:01:36;;;;;;;125.65;112.00;;;5.80;81.10;;;;;;5018639;28;20133;-79
2022/03/05 11:04:05;;;;;;;126.20;112.97;;;5.90;80.60;;;;;;5018647;28;20085;-79
2022/03/05 11:06:35;;;;;;;128.98;115.38;;;5.90;80.70;;;;;;5018125;28;20058;-78
2022/03/05 11:09:02;;;;;;;127.82;114.07;;;6.00;81.00;;;;;;5001728;28;20078;-79
2022/03/05 11:11:31;;;;;;;127.07;113.88;;;6.10;80.30;;;;;;5018435;28;20543;-79
2022/03/05 11:13:59;;;;;;;126.68;113.43;;;6.20;80.10;;;;;;5002151;28;20496;-79
2022/03/05 11:16:28;;;;;;;127.18;111.63;;;6.30;79.90;;;;;;5034996;28;20504;-79
2022/03/05 11:18:56;;;;;;;125.53;112.45;;;6.40;79.60;;;;;;5018590;28;20053;-79
2022/03/05 11:21:25;;;;;;;125.03;111.75;;;6.40;79.00;;;;;;5018200;28;20802;-79
2022/03/05 11:23:52;;;;;;;126.63;113.63;;;6.50;78.90;;;;;;5000789;28;20487;-79
2022/03/05 11:26:19;;;;;;;124.90;111.70;;;6.50;79.10;;;;;;5036027;28;20057;-79
2022/03/05 11:28:48;;;;;;;;;;;6.60;79.10;;;;;;5017900;28;20061;-76
2022/03/05 11:31:18;;;;;;;127.05;113.35;;;6.70;78.90;;;;;;5018212;28;19929;-78
2022/03/05 11:33:48;;;;;;;124.78;111.65;;;6.80;79.00;;;;;;5017150;28;20056;-78
2022/03/05 11:36:31;;;;;;;125.30;112.32;;;6.80;78.80;;;;;;5017924;28;20082;-80
2022/03/05 11:39:10;;;;;;;125.78;112.43;;;6.90;79.00;;;;;;5017730;28;20056;-78
2022/03/05 11:41:56;;;;;;;123.90;111.00;;;7.00;79.10;;;;;;5031352;28;20149;-78
2022/03/05 11:44:28;;;;;;;126.78;113.13;;;7.20;79.50;;;;;;4981009;28;20061;-78
2022/03/05 11:47:27;;;;;;;124.60;111.45;;;7.30;79.20;;;;;;4997922;28;20790;-80
2022/03/05 11:50:16;;;;;;;131.35;117.72;;;7.40;78.90;;;;;;4996629;28;20058;-80
2022/03/05 11:53:07;;;;;;;123.63;110.97;;;7.50;78.60;;;;;;4998048;28;20555;-80
2022/03/05 11:55:41;;;;;;;124.50;111.55;;;7.70;78.20;;;;;;5013082;28;20054;-80
2022/03/05 11:58:35;;;;;;;124.22;111.30;;;7.80;78.20;;;;;;4997886;28;20070;-80
2022/03/05 12:01:34;;;;;;;124.18;111.25;;;7.90;77.40;;;;;;4997939;28;20583;-80
2022/03/05 12:04:16;;;;;;;125.80;112.50;;;8.00;78.10;;;;;;4950599;28;24338;-80
2022/03/05 12:06:46;;;;;;;126.50;113.70;;;8.10;77.20;;;;;;5028661;28;20145;-77
2022/03/05 12:09:39;;;;;;;127.00;113.75;;;8.20;77.70;;;;;;5014165;28;20871;-77
2022/03/05 12:12:10;;;;;;;125.15;112.30;;;8.30;76.90;;;;;;5004372;28;20058;-81
2022/03/05 12:15:09;;;;;;;126.15;113.05;;;8.40;76.30;;;;;;4997671;28;20547;-81
2022/03/05 12:17:40;;;;;;;124.32;111.65;;;8.50;76.40;;;;;;5003375;28;20511;-82
2022/03/05 12:20:10;;;;;;;126.03;113.28;;;8.50;75.50;;;;;;5017475;28;20052;-82
2022/03/05 12:22:47;;;;;;;126.78;113.88;;;8.60;75.60;;;;;;5017412;28;20057;-82
2022/03/05 12:25:14;;;;;;;129.52;115.88;;;8.70;74.80;;;;;;5017249;28;20054;-82
2022/03/05 12:27:47;;;;;;;127.38;114.35;;;8.80;74.40;;;;;;5017228;28;20596;-82
2022/03/05 12:30:15;;;;;;;129.05;116.07;;;8.90;74.90;;;;;;5016821;28;20152;-78
2022/03/05 12:32:45;;;;;;;127.63;114.65;;;9.00;75.00;;;;;;5017505;28;20177;-80
2022/03/05 12:35:14;;;;;;;126.43;113.57;;;9.00;73.80;;;;;;5017102;28;20050;-79
2022/03/05 12:37:43;;;;;;;127.47;114.47;;;9.20;72.90;;;;;;5017120;28;20050;-80